METAR Data
IDs: Format: Raw Decoded Include TAF

Data at: 0111 UTC 06 Dec 2019

KDYR 060056Z AUTO 16007KT 10SM CLR 14/02 A3007 RMK AO2 SLP187 T01390022 PNO $
KDYR 052356Z AUTO 00000KT 10SM SCT110 13/03 A3007 RMK AO2 SLP189 6//// T01330028 10167 20128 53005 PNO $
KDYR 052256Z AUTO 15004KT 10SM FEW120 14/03 A3005 RMK AO2 SLP182 T01390028 PNO $
KDYR 052156Z AUTO 15005KT 10SM FEW120 15/02 A3006 RMK AO2 SLP184 T01500022 PNO $
KDYR 052056Z AUTO 16006KT 10SM CLR 16/02 A3005 RMK AO2 SLP183 6//// T01610017 56012 PNO $
KDYR 051956Z AUTO 20007KT 10SM FEW120 17/02 A3006 RMK AO2 SLP186 T01670022 PNO $
KDYR 051856Z AUTO 15006KT 10SM BKN120 16/02 A3006 RMK AO2 SLP187 T01560022 PNO $
KDYR 051656Z AUTO 16007KT 10SM CLR 14/02 A3012 RMK AO2 SLP205 T01440022 PNO $
KDYR 051556Z AUTO 14008KT 10SM CLR 12/03 A3013 RMK AO2 SLP208 T01220033 PNO $
KDYR 051456Z AUTO 14004KT 10SM CLR 08/04 A3013 RMK AO2 SLP208 6//// T00830044 51011 PNO $
KDYR 051356Z AUTO 00000KT 10SM CLR 05/03 A3012 RMK AO2 SLP208 T00500033 PNO $
KDYR 051256Z AUTO 00000KT 10SM CLR 03/02 A3011 RMK AO2 SLP204 T00330022 PNO $
KDYR 051156Z AUTO 00000KT 10SM CLR 03/02 A3009 RMK AO2 SLP199 6//// 7//// T00330022 10039 20017 53009 PNO $
KDYR 051056Z AUTO 00000KT 10SM CLR 03/02 A3008 RMK AO2 SLP192 T00330022 PNO $
KDYR 050956Z AUTO 00000KT 10SM CLR 04/02 A3007 RMK AO2 SLP191 T00390022 PNO $
KDYR 050856Z AUTO 00000KT 10SM CLR 03/02 A3007 RMK AO2 SLP188 6//// T00280017 53010 PNO $
KDYR 050756Z AUTO 00000KT 10SM CLR 03/01 A3006 RMK AO2 SLP185 T00280011 PNO $
KDYR 050656Z AUTO 00000KT 10SM CLR 02/01 A3004 RMK AO2 SLP179 T00220011 FZRANO PNO $
KDYR 050556Z AUTO 00000KT 10SM CLR 04/02 A3004 RMK AO2 SLP178 6//// T00390017 10089 20033 401390033 53004 PNO $
KDYR 050456Z AUTO 00000KT 10SM CLR 04/02 A3003 RMK AO2 SLP176 T00440017 PNO $
KDYR 050356Z AUTO 00000KT 10SM CLR 05/02 A3002 RMK AO2 SLP174 T00500017 PNO $
KDYR 050256Z AUTO 00000KT 10SM CLR 08/02 A3002 RMK AO2 SLP174 6//// T00830022 51008 PNO $
KDYR 050156Z AUTO 00000KT 10SM CLR 06/02 A3002 RMK AO2 SLP173 T00610017 PNO $
KDYR 050056Z AUTO 00000KT 10SM CLR 07/02 A3001 RMK AO2 SLP169 T00720017 PNO $
KDYR 042356Z AUTO 00000KT 10SM CLR 08/02 A3000 RMK AO2 SLP166 6//// T00830022 10139 20083 51007 PNO $
KDYR 042256Z AUTO 25005KT 10SM CLR 10/02 A3000 RMK AO2 SLP164 T01000022 PNO $
KDYR 042156Z AUTO 26006KT 10SM CLR 13/02 A2999 RMK AO2 SLP162 T01280022 PNO $
KDYR 042056Z AUTO 27006KT 10SM CLR 13/01 A2998 RMK AO2 SLP157 6//// T01330006 55002 PNO $
KDYR 041956Z AUTO 25009KT 10SM CLR 13/02 A2996 RMK AO2 SLP153 T01330022 PNO $
KDYR 041856Z AUTO 23007KT 10SM CLR 12/03 A2997 RMK AO2 SLP153 T01220033 PNO $
KDYR 041756Z AUTO 27007KT 10SM CLR 12/02 A2999 RMK AO2 SLP161 6//// T01220022 10122 20033 58004 PNO $
KDYR 041656Z AUTO 29008KT 10SM CLR 11/02 A3000 RMK AO2 SLP165 T01110022 PNO $
KDYR 041556Z AUTO 27006KT 10SM CLR 09/02 A3001 RMK AO2 SLP170 T00890022 PNO $
KDYR 041456Z AUTO 27008KT 10SM CLR 07/02 A3000 RMK AO2 SLP166 6//// T00670022 53023 PNO $
KDYR 041356Z AUTO 25007KT 10SM CLR 05/01 A2997 RMK AO2 SLP157 T00500011 PNO $